Terminal Aerodrome Forecast
Issued by NWS

Home | Current Version | Previous Version | Text Only | Print | Product List | Glossary On
Versions: 1 2 3 4 5 6 7 8 9 10 11 12 13 14 15 16 17 18 19 20 21 22 23 24 25 26 27 28 29 30 31 32 33 34 35 36 37 38
000
FTAK31 PANC 031732
TAFAEN
TAF
PAEN 031732Z 0318/0418 VRB05KT P6SM BKN080
      TEMPO 0318/0319 BKN005
     FM032200 23008KT P6SM FEW080 SCT200
     FM040700 VRB03KT P6SM SCT200
     FM041200 VRB03KT P6SM VCFG FEW003
     FM041700 04007KT P6SM SCT045 BKN070=

USA.gov is the U.S. government's official web portal to all federal, state and local government web resources and services.